Valiant III — VZUS — position and weather

sailwx.info

Track history (hours):
 
Tides and Currents Weather Stations Pressure Air Temp Water Temp Dewpoint Dewpoint Depression Visibility Wind Speed Wind Dir Waves Ship Positions

Valiant III

Last reported at 2017-Sep-24 08:53 UTC. Time now 2017-Sep-24 21:09 UTC.
Position S 27°23' E 153°09'.

Length 54 m; draft 3 m.

Type: Tanker. MMSI: 503649000.

Date/timePositionNaut miles runAvg speedWind from/ knotsBaromVisibWave heightAir tempDewpointWater temp
2017-Sep-24 08:53S 27°23' E 153°09'0 0.0
2017-Sep-24 08:29S 27°23' E 153°09'0 0.0
2017-Sep-24 07:53S 27°23' E 153°09'0 0.0
2017-Sep-24 04:42S 27°23' E 153°09'  
2017-Sep-20 18:45S 27°26' E 153°08'1 5.1
2017-Sep-20 18:30S 27°25' E 153°09'1 0.6
2017-Sep-20 15:55S 27°23' E 153°09'0 0.0
2017-Sep-20 15:04S 27°23' E 153°09'0 0.0
2017-Sep-20 14:46S 27°23' E 153°09'0 0.0
2017-Sep-20 10:57S 27°23' E 153°09'0 0.0
2017-Sep-20 10:30S 27°23' E 153°09'0 0.0
2017-Sep-20 09:57S 27°23' E 153°09'0 0.0
2017-Sep-19 20:00S 27°23' E 153°09'0 0.0
2017-Sep-19 19:30S 27°23' E 153°09'0 0.0
2017-Sep-19 19:00S 27°23' E 153°09'0 0.0
2017-Sep-19 18:30S 27°23' E 153°09'0 0.0
2017-Sep-19 17:57S 27°23' E 153°09'0 0.0
2017-Sep-19 17:30S 27°23' E 153°09'0 0.0
2017-Sep-19 17:00S 27°23' E 153°09'0 0.0
2017-Sep-19 16:18S 27°23' E 153°09'0 0.0
2017-Sep-19 15:57S 27°23' E 153°09'0 0.0
2017-Sep-19 15:30S 27°23' E 153°09'0 0.0
2017-Sep-19 14:02S 27°23' E 153°09'0 0.0
2017-Sep-19 13:56S 27°23' E 153°09'0 0.0
2017-Sep-19 10:29S 27°23' E 153°09'0 0.0
2017-Sep-19 09:32S 27°23' E 153°09'0 0.0
2017-Sep-18 22:35S 27°23' E 153°09'0 3.6
2017-Sep-18 22:29S 27°23' E 153°10'0 0.0
2017-Sep-18 21:59S 27°23' E 153°10'0 0.0
2017-Sep-18 21:29S 27°23' E 153°10'0 0.0
2017-Sep-18 20:59S 27°23' E 153°10'0 0.0
2017-Sep-18 20:26S 27°23' E 153°10'0 0.0
2017-Sep-18 19:59S 27°23' E 153°10'0 0.0
2017-Sep-18 19:29S 27°23' E 153°10'0 0.0
2017-Sep-18 18:59S 27°23' E 153°10'0 0.0
2017-Sep-18 18:29S 27°23' E 153°10'0 0.0
2017-Sep-18 17:59S 27°23' E 153°10'0 0.0
2017-Sep-18 17:29S 27°23' E 153°10'0 0.0
2017-Sep-18 17:00S 27°23' E 153°10'2 4.0
2017-Sep-18 16:30S 27°25' E 153°09'1 1.8
2017-Sep-18 15:56S 27°25' E 153°08'0 0.0
2017-Sep-18 14:19S 27°25' E 153°08'0 0.0
2017-Sep-18 13:49S 27°25' E 153°08'0 0.0
2017-Sep-18 13:19S 27°25' E 153°08'0 0.0
2017-Sep-18 12:58S 27°25' E 153°08'0 0.0
2017-Sep-18 12:28S 27°25' E 153°08'0 0.0
2017-Sep-18 11:58S 27°25' E 153°08'2 2.6
2017-Sep-18 11:23S 27°24' E 153°09'1 2.6
2017-Sep-18 10:58S 27°23' E 153°09'0 0.0
2017-Sep-18 10:16S 27°23' E 153°09'0 0.0
2017-Sep-18 09:43S 27°23' E 153°09'0 0.0
2017-Sep-18 09:25S 27°23' E 153°09'0 0.0
2017-Sep-18 08:25S 27°23' E 153°09'0 0.0
2017-Sep-17 19:24S 27°23' E 153°09'0 0.0
2017-Sep-17 16:48S 27°23' E 153°09'0 0.0
2017-Sep-17 16:18S 27°23' E 153°09'0 0.0
2017-Sep-17 15:42S 27°23' E 153°09'0 0.0
2017-Sep-17 15:24S 27°23' E 153°09'0 0.0
2017-Sep-17 14:36S 27°23' E 153°09'0 0.0
2017-Sep-17 14:18S 27°23' E 153°09'0 0.0
2017-Sep-17 13:42S 27°23' E 153°09'0 0.0
2017-Sep-17 13:30S 27°23' E 153°09'0 0.0
2017-Sep-17 11:18S 27°23' E 153°09'0 0.0
2017-Sep-17 10:54S 27°23' E 153°09'0 0.0
2017-Sep-17 10:30S 27°23' E 153°09'0 0.0
2017-Sep-17 08:54S 27°23' E 153°09'0 0.0
2017-Sep-17 08:21S 27°23' E 153°09'5 0.5
2017-Sep-16 20:51S 27°27' E 153°05'3 2.2
2017-Sep-16 19:36S 27°26' E 153°08'0 0.0
2017-Sep-16 19:30S 27°26' E 153°08'0 0.0
2017-Sep-16 18:57S 27°26' E 153°08'0 0.0
2017-Sep-16 18:30S 27°26' E 153°08'0 0.0
2017-Sep-16 18:00S 27°26' E 153°08'0 0.0
2017-Sep-16 17:30S 27°26' E 153°08'0 0.0
2017-Sep-16 16:54S 27°26' E 153°08'0 0.0
2017-Sep-16 16:27S 27°26' E 153°08'0 0.0
2017-Sep-16 14:38S 27°26' E 153°08'0 2.7
2017-Sep-16 14:27S 27°25' E 153°08'2 4.3
2017-Sep-16 14:00S 27°24' E 153°09'5 0.3
2017-Sep-15 20:42S 27°27' E 153°04'1 5.7
2017-Sep-15 20:28S 27°27' E 153°06'4 7.2
2017-Sep-15 19:59S 27°25' E 153°09'1 0.1
2017-Sep-15 02:53S 27°23' E 153°09'0 0.1
2017-Sep-14 19:38S 27°24' E 153°09'0 0.1
2017-Sep-14 17:12S 27°23' E 153°09'0 0.0
2017-Sep-14 17:00S 27°23' E 153°09'0 0.0
2017-Sep-14 16:27S 27°23' E 153°09'0 0.0
2017-Sep-14 15:57S 27°23' E 153°09'0 0.0
2017-Sep-14 15:27S 27°23' E 153°09'0 0.0
2017-Sep-14 14:57S 27°23' E 153°09'0 0.0
2017-Sep-14 14:30S 27°23' E 153°09'  
Track history (hours):
 
Tides and Currents Weather Stations Pressure Air Temp Water Temp Dewpoint Dewpoint Depression Visibility Wind Speed Wind Dir Waves Ship Positions

Valiant III

Last reported at 2017-Sep-24 08:53 UTC. Time now 2017-Sep-24 21:09 UTC.
Position S 27°23' E 153°09'.

Length 54 m; draft 3 m.

Type: Tanker. MMSI: 503649000.

Date/timePositionNaut miles runAvg speedWind from/ knotsBaromVisibWave heightAir tempDewpointWater temp
2017-Sep-24 08:53S 27°23' E 153°09'0 0.0
2017-Sep-24 08:29S 27°23' E 153°09'0 0.0
2017-Sep-24 07:53S 27°23' E 153°09'0 0.0
2017-Sep-24 04:42S 27°23' E 153°09'  
2017-Sep-20 18:45S 27°26' E 153°08'1 5.1
2017-Sep-20 18:30S 27°25' E 153°09'1 0.6
2017-Sep-20 15:55S 27°23' E 153°09'0 0.0
2017-Sep-20 15:04S 27°23' E 153°09'0 0.0
2017-Sep-20 14:46S 27°23' E 153°09'0 0.0
2017-Sep-20 10:57S 27°23' E 153°09'0 0.0
2017-Sep-20 10:30S 27°23' E 153°09'0 0.0
2017-Sep-20 09:57S 27°23' E 153°09'0 0.0
2017-Sep-19 20:00S 27°23' E 153°09'0 0.0
2017-Sep-19 19:30S 27°23' E 153°09'0 0.0
2017-Sep-19 19:00S 27°23' E 153°09'0 0.0
2017-Sep-19 18:30S 27°23' E 153°09'0 0.0
2017-Sep-19 17:57S 27°23' E 153°09'0 0.0
2017-Sep-19 17:30S 27°23' E 153°09'0 0.0
2017-Sep-19 17:00S 27°23' E 153°09'0 0.0
2017-Sep-19 16:18S 27°23' E 153°09'0 0.0
2017-Sep-19 15:57S 27°23' E 153°09'0 0.0
2017-Sep-19 15:30S 27°23' E 153°09'0 0.0
2017-Sep-19 14:02S 27°23' E 153°09'0 0.0
2017-Sep-19 13:56S 27°23' E 153°09'0 0.0
2017-Sep-19 10:29S 27°23' E 153°09'0 0.0
2017-Sep-19 09:32S 27°23' E 153°09'0 0.0
2017-Sep-18 22:35S 27°23' E 153°09'0 3.6
2017-Sep-18 22:29S 27°23' E 153°10'0 0.0
2017-Sep-18 21:59S 27°23' E 153°10'0 0.0
2017-Sep-18 21:29S 27°23' E 153°10'0 0.0
2017-Sep-18 20:59S 27°23' E 153°10'0 0.0
2017-Sep-18 20:26S 27°23' E 153°10'0 0.0
2017-Sep-18 19:59S 27°23' E 153°10'0 0.0
2017-Sep-18 19:29S 27°23' E 153°10'0 0.0
2017-Sep-18 18:59S 27°23' E 153°10'0 0.0
2017-Sep-18 18:29S 27°23' E 153°10'0 0.0
2017-Sep-18 17:59S 27°23' E 153°10'0 0.0
2017-Sep-18 17:29S 27°23' E 153°10'0 0.0
2017-Sep-18 17:00S 27°23' E 153°10'2 4.0
2017-Sep-18 16:30S 27°25' E 153°09'1 1.8
2017-Sep-18 15:56S 27°25' E 153°08'0 0.0
2017-Sep-18 14:19S 27°25' E 153°08'0 0.0
2017-Sep-18 13:49S 27°25' E 153°08'0 0.0
2017-Sep-18 13:19S 27°25' E 153°08'0 0.0
2017-Sep-18 12:58S 27°25' E 153°08'0 0.0
2017-Sep-18 12:28S 27°25' E 153°08'0 0.0
2017-Sep-18 11:58S 27°25' E 153°08'2 2.6
2017-Sep-18 11:23S 27°24' E 153°09'1 2.6
2017-Sep-18 10:58S 27°23' E 153°09'0 0.0
2017-Sep-18 10:16S 27°23' E 153°09'0 0.0
2017-Sep-18 09:43S 27°23' E 153°09'0 0.0
2017-Sep-18 09:25S 27°23' E 153°09'0 0.0
2017-Sep-18 08:25S 27°23' E 153°09'0 0.0
2017-Sep-17 19:24S 27°23' E 153°09'0 0.0
2017-Sep-17 16:48S 27°23' E 153°09'0 0.0
2017-Sep-17 16:18S 27°23' E 153°09'0 0.0
2017-Sep-17 15:42S 27°23' E 153°09'0 0.0
2017-Sep-17 15:24S 27°23' E 153°09'0 0.0
2017-Sep-17 14:36S 27°23' E 153°09'0 0.0
2017-Sep-17 14:18S 27°23' E 153°09'0 0.0
2017-Sep-17 13:42S 27°23' E 153°09'0 0.0
2017-Sep-17 13:30S 27°23' E 153°09'0 0.0
2017-Sep-17 11:18S 27°23' E 153°09'0 0.0
2017-Sep-17 10:54S 27°23' E 153°09'0 0.0
2017-Sep-17 10:30S 27°23' E 153°09'0 0.0
2017-Sep-17 08:54S 27°23' E 153°09'0 0.0
2017-Sep-17 08:21S 27°23' E 153°09'5 0.5
2017-Sep-16 20:51S 27°27' E 153°05'3 2.2
2017-Sep-16 19:36S 27°26' E 153°08'0 0.0
2017-Sep-16 19:30S 27°26' E 153°08'0 0.0
2017-Sep-16 18:57S 27°26' E 153°08'0 0.0
2017-Sep-16 18:30S 27°26' E 153°08'0 0.0
2017-Sep-16 18:00S 27°26' E 153°08'0 0.0
2017-Sep-16 17:30S 27°26' E 153°08'0 0.0
2017-Sep-16 16:54S 27°26' E 153°08'0 0.0
2017-Sep-16 16:27S 27°26' E 153°08'0 0.0
2017-Sep-16 14:38S 27°26' E 153°08'0 2.7
2017-Sep-16 14:27S 27°25' E 153°08'2 4.3
2017-Sep-16 14:00S 27°24' E 153°09'5 0.3
2017-Sep-15 20:42S 27°27' E 153°04'1 5.7
2017-Sep-15 20:28S 27°27' E 153°06'4 7.2
2017-Sep-15 19:59S 27°25' E 153°09'1 0.1
2017-Sep-15 02:53S 27°23' E 153°09'0 0.1
2017-Sep-14 19:38S 27°24' E 153°09'0 0.1
2017-Sep-14 17:12S 27°23' E 153°09'0 0.0
2017-Sep-14 17:00S 27°23' E 153°09'0 0.0
2017-Sep-14 16:27S 27°23' E 153°09'0 0.0
2017-Sep-14 15:57S 27°23' E 153°09'0 0.0
2017-Sep-14 15:27S 27°23' E 153°09'0 0.0
2017-Sep-14 14:57S 27°23' E 153°09'0 0.0
2017-Sep-14 14:30S 27°23' E 153°09'  

Dump ship's entire track history